Time;durP1;ratioP1;P1;durP2;ratioP2;P2;SDS_P1;SDS_P2;PMS_P1;PMS_P2;Temp;Humidity;BMP_temperature;BMP_pressure;BME280_temperature;BME280_humidity;BME280_pressure;Samples;Min_cycle;Max_cycle;Signal;HPM_P1;HPM_P2
2021/05/09 02:47:45;;;;;;;5.30;3.78;;;9.70;81.60;;;;;;4810268;29;20172;-68
2021/05/09 02:50:15;;;;;;;7.60;4.28;;;9.70;81.80;;;;;;4813748;29;20034;-68
2021/05/09 02:52:41;;;;;;;4.78;3.65;;;9.70;81.80;;;;;;4813951;29;20035;-68
2021/05/09 02:55:09;;;;;;;9.93;4.00;;;9.70;82.10;;;;;;4813911;29;20031;-68
2021/05/09 02:57:35;;;;;;;5.15;3.88;;;9.70;82.30;;;;;;4798904;29;20325;-68
2021/05/09 03:00:04;;;;;;;6.97;4.22;;;9.70;82.20;;;;;;4815019;29;20080;-68
2021/05/09 03:02:31;;;;;;;5.32;3.90;;;9.70;82.10;;;;;;4814886;29;20038;-68
2021/05/09 03:04:57;;;;;;;7.35;4.45;;;9.70;82.30;;;;;;4798854;29;20419;-67
2021/05/09 03:07:23;;;;;;;4.82;3.78;;;9.60;82.40;;;;;;4813684;29;20026;-67
2021/05/09 03:09:49;;;;;;;6.75;4.65;;;9.60;82.30;;;;;;4813892;29;20026;-67
2021/05/09 03:12:14;;;;;;;5.75;4.13;;;9.60;82.70;;;;;;4813898;29;20042;-73
2021/05/09 03:14:40;;;;;;;7.78;3.67;;;9.60;82.70;;;;;;4813671;29;20086;-68
2021/05/09 03:17:06;;;;;;;4.55;3.78;;;9.50;82.50;;;;;;4817978;29;20076;-68
2021/05/09 03:19:32;;;;;;;6.30;4.40;;;9.50;82.60;;;;;;4817683;29;20075;-68
2021/05/09 03:21:57;;;;;;;7.00;4.38;;;9.50;82.50;;;;;;4817092;29;20062;-67
2021/05/09 03:24:23;;;;;;;6.90;5.07;;;9.50;82.50;;;;;;4818070;29;20089;-68
2021/05/09 03:26:49;;;;;;;5.88;4.13;;;9.50;82.70;;;;;;4817825;29;20237;-68
2021/05/09 03:29:15;;;;;;;6.47;4.15;;;9.50;83.00;;;;;;4816746;29;20050;-68
2021/05/09 03:31:40;;;;;;;7.22;3.97;;;9.50;83.00;;;;;;4817324;29;20033;-67
2021/05/09 03:34:06;;;;;;;6.65;4.90;;;9.50;82.90;;;;;;4816824;29;20073;-68
2021/05/09 03:36:32;;;;;;;7.25;4.35;;;9.50;83.10;;;;;;4817765;29;20058;-68
2021/05/09 03:38:58;;;;;;;7.20;4.05;;;9.40;83.00;;;;;;4817654;29;20095;-68
2021/05/09 03:41:24;;;;;;;8.13;4.57;;;9.40;83.40;;;;;;4817868;29;20019;-67
2021/05/09 03:43:50;;;;;;;4.13;3.45;;;9.40;83.60;;;;;;4816720;29;20046;-67
2021/05/09 03:46:17;;;;;;;7.60;5.03;;;9.40;83.60;;;;;;4823713;29;20056;-68
2021/05/09 03:48:42;;;;;;;4.93;3.38;;;9.50;84.00;;;;;;4835901;29;20358;-67
2021/05/09 03:51:08;;;;;;;9.40;4.55;;;9.50;83.90;;;;;;4835604;29;20038;-68
2021/05/09 03:53:34;;;;;;;5.20;3.55;;;9.50;83.80;;;;;;4834294;29;20042;-68
2021/05/09 03:56:00;;;;;;;6.25;4.18;;;9.50;83.90;;;;;;4834480;29;20030;-68
2021/05/09 03:58:26;;;;;;;7.03;4.30;;;9.50;84.20;;;;;;4849579;29;20374;-68
2021/05/09 04:00:52;;;;;;;7.90;5.15;;;9.50;84.10;;;;;;4835561;29;20022;-68
2021/05/09 04:03:29;;;;;;;6.50;3.90;;;9.50;84.40;;;;;;4835387;29;20026;-67
2021/05/09 04:05:55;;;;;;;6.47;3.80;;;9.50;84.70;;;;;;4819334;29;20138;-68
2021/05/09 04:08:25;;;;;;;7.50;4.75;;;9.50;84.60;;;;;;4835490;29;20041;-68
2021/05/09 04:10:52;;;;;;;6.57;4.70;;;9.50;85.10;;;;;;4835509;29;20046;-67
2021/05/09 04:13:19;;;;;;;6.03;4.70;;;9.60;85.60;;;;;;4834153;29;20045;-68
2021/05/09 04:15:45;;;;;;;6.07;4.63;;;9.60;86.20;;;;;;4819145;29;20052;-67
2021/05/09 04:18:11;;;;;;;8.02;5.15;;;9.60;86.50;;;;;;4833841;29;20066;-68
2021/05/09 04:20:37;;;;;;;5.95;4.25;;;9.70;86.60;;;;;;4835190;29;20302;-68
2021/05/09 04:23:06;;;;;;;5.97;4.18;;;9.80;86.90;;;;;;4835215;29;20030;-67
2021/05/09 04:25:32;;;;;;;7.53;4.40;;;9.90;87.10;;;;;;4835261;29;20126;-69
2021/05/09 04:27:58;;;;;;;6.97;4.88;;;10.00;87.00;;;;;;4834914;29;20045;-68
2021/05/09 04:30:24;;;;;;;9.55;4.72;;;10.10;86.70;;;;;;4833892;29;20398;-67
2021/05/09 04:33:04;;;;;;;5.60;4.32;;;10.30;86.20;;;;;;4833970;29;20026;-67
2021/05/09 04:35:31;;;;;;;7.18;4.90;;;10.40;86.30;;;;;;4849342;29;20230;-68
2021/05/09 04:37:57;;;;;;;5.32;3.97;;;10.50;86.10;;;;;;4834977;29;20045;-68
2021/05/09 04:40:23;;;;;;;7.93;3.75;;;10.70;85.40;;;;;;4834747;29;20038;-68
2021/05/09 04:42:49;;;;;;;7.20;4.13;;;10.80;84.70;;;;;;4834818;29;20371;-68
2021/05/09 04:45:15;;;;;;;8.90;3.90;;;10.90;84.00;;;;;;4833674;29;20034;-68
2021/05/09 04:47:42;;;;;;;6.93;3.78;;;11.10;83.70;;;;;;4834351;29;20073;-68
2021/05/09 04:50:09;;;;;;;7.10;3.20;;;11.20;82.80;;;;;;4834456;29;20041;-68
2021/05/09 04:52:34;;;;;;;4.68;3.75;;;11.30;82.60;;;;;;4830821;29;20352;-68
2021/05/09 04:55:00;;;;;;;5.20;3.78;;;11.50;82.20;;;;;;4834517;29;20058;-68
2021/05/09 04:57:26;;;;;;;8.00;3.58;;;11.70;81.70;;;;;;4834690;29;20060;-68
2021/05/09 04:59:52;;;;;;;8.48;3.60;;;11.80;80.90;;;;;;4834260;29;20027;-68
2021/05/09 05:02:17;;;;;;;8.10;3.50;;;11.90;80.20;;;;;;4832790;29;20075;-68
2021/05/09 05:04:43;;;;;;;6.00;3.60;;;12.00;79.70;;;;;;4818367;29;20026;-68
2021/05/09 05:07:09;;;;;;;4.45;3.30;;;12.00;79.80;;;;;;4833525;29;20030;-68
2021/05/09 05:09:35;;;;;;;7.35;3.58;;;12.10;79.10;;;;;;4833905;29;20479;-68
2021/05/09 05:12:00;;;;;;;6.28;3.78;;;12.20;78.50;;;;;;4834505;29;20325;-68
2021/05/09 05:14:26;;;;;;;3.35;2.95;;;12.20;77.50;;;;;;4834267;29;20098;-70
2021/05/09 05:16:52;;;;;;;4.72;2.85;;;12.20;77.90;;;;;;4833233;29;20022;-68
2021/05/09 05:19:18;;;;;;;4.07;3.25;;;12.30;77.60;;;;;;4833078;29;20046;-68
2021/05/09 05:21:44;;;;;;;7.22;4.60;;;12.30;77.50;;;;;;4829610;29;20022;-68
2021/05/09 05:24:09;;;;;;;4.78;3.55;;;12.30;76.80;;;;;;4829160;29;20030;-69
2021/05/09 05:26:35;;;;;;;4.55;3.30;;;12.30;76.90;;;;;;4826825;29;20042;-68
2021/05/09 05:29:01;;;;;;;4.40;3.30;;;12.40;76.60;;;;;;4825399;29;20034;-70
2021/05/09 05:31:27;;;;;;;5.90;3.70;;;12.40;76.40;;;;;;4828566;29;20022;-68
2021/05/09 05:33:52;;;;;;;8.52;3.70;;;12.50;76.30;;;;;;4831681;29;20031;-68
2021/05/09 05:36:18;;;;;;;4.32;3.30;;;12.40;75.60;;;;;;4834234;29;20060;-68
2021/05/09 05:38:45;;;;;;;7.57;3.35;;;12.40;75.80;;;;;;4833509;29;20049;-68
2021/05/09 05:41:10;;;;;;;5.65;3.38;;;12.40;76.70;;;;;;4831936;29;20105;-68
2021/05/09 05:43:36;;;;;;;5.88;3.88;;;12.40;75.70;;;;;;4832399;29;20035;-68
2021/05/09 05:46:03;;;;;;;6.05;3.25;;;12.40;75.30;;;;;;4827102;29;20061;-68
2021/05/09 05:48:30;;;;;;;4.85;3.90;;;12.40;76.30;;;;;;4830489;29;20042;-68
2021/05/09 05:50:56;;;;;;;7.90;3.25;;;12.50;76.30;;;;;;4852652;29;20049;-68
2021/05/09 05:53:23;;;;;;;5.47;3.67;;;12.60;76.40;;;;;;4823633;29;20329;-68
2021/05/09 05:55:50;;;;;;;4.97;3.13;;;12.60;76.40;;;;;;4824398;29;20050;-68
2021/05/09 05:58:18;;;;;;;4.43;3.45;;;12.70;76.30;;;;;;4827539;29;20413;-67
2021/05/09 06:00:44;;;;;;;5.90;3.40;;;12.80;75.50;;;;;;4827540;29;20030;-68
2021/05/09 06:03:10;;;;;;;5.37;3.63;;;12.90;75.10;;;;;;4828145;29;20030;-68
2021/05/09 06:05:36;;;;;;;8.40;3.50;;;13.00;75.10;;;;;;4829717;29;20267;-69
2021/05/09 06:08:02;;;;;;;7.32;3.70;;;13.30;75.50;;;;;;4828388;29;20043;-68
2021/05/09 06:10:28;;;;;;;9.32;4.28;;;13.70;73.60;;;;;;4833337;29;20064;-69
2021/05/09 06:12:55;;;;;;;14.82;5.43;;;14.30;71.40;;;;;;4837011;29;20030;-69
2021/05/09 06:15:20;;;;;;;7.97;3.55;;;14.80;70.10;;;;;;4825912;29;20034;-71
2021/05/09 06:17:47;;;;;;;5.20;3.50;;;15.20;67.70;;;;;;4824304;29;20049;-69
2021/05/09 06:20:13;;;;;;;6.78;3.25;;;15.40;66.40;;;;;;4827103;29;20050;-69
2021/05/09 06:22:39;;;;;;;22.45;3.85;;;15.70;65.20;;;;;;4826420;29;20022;-69
2021/05/09 06:25:05;;;;;;;23.55;4.13;;;15.90;64.10;;;;;;4825854;29;20198;-69
2021/05/09 06:27:31;;;;;;;11.45;3.75;;;16.00;63.70;;;;;;4824701;29;20089;-69
2021/05/09 06:29:57;;;;;;;4.88;3.25;;;16.10;63.80;;;;;;4825168;29;20022;-69
2021/05/09 06:32:22;;;;;;;5.30;3.38;;;16.30;62.90;;;;;;4835252;29;20033;-69
2021/05/09 06:34:48;;;;;;;7.70;3.80;;;16.50;62.10;;;;;;4825284;29;20059;-69
2021/05/09 06:37:14;;;;;;;3.80;3.35;;;16.60;61.40;;;;;;4827003;29;20030;-70
2021/05/09 06:39:40;;;;;;;7.75;3.10;;;16.60;60.00;;;;;;4828856;29;20045;-69
2021/05/09 06:42:06;;;;;;;3.35;3.05;;;16.60;60.90;;;;;;4831056;29;20097;-69
2021/05/09 06:44:36;;;;;;;5.03;3.08;;;16.80;61.30;;;;;;4830161;29;20218;-69
2021/05/09 06:47:03;;;;;;;10.40;3.58;;;16.90;60.30;;;;;;4832591;29;20038;-69
2021/05/09 06:49:29;;;;;;;5.50;2.80;;;17.00;58.90;;;;;;4833248;29;20034;-69
2021/05/09 06:51:56;;;;;;;7.07;3.30;;;17.00;59.30;;;;;;4831589;29;20276;-69
2021/05/09 06:54:22;;;;;;;6.03;2.95;;;17.00;58.70;;;;;;4830148;29;20047;-69
2021/05/09 06:56:49;;;;;;;8.52;3.65;;;17.10;58.60;;;;;;4829480;29;20030;-70
2021/05/09 06:59:17;;;;;;;6.85;3.53;;;17.10;59.20;;;;;;4831875;29;20108;-69
2021/05/09 07:01:42;;;;;;;;;;;17.20;58.90;;;;;;4833791;29;20027;-68
2021/05/09 07:04:08;;;;;;;5.63;3.33;;;17.30;58.00;;;;;;4830983;29;19993;-69
2021/05/09 07:06:35;;;;;;;6.15;2.85;;;17.40;58.80;;;;;;4835035;29;20030;-70
2021/05/09 07:09:01;;;;;;;6.72;2.78;;;17.60;60.50;;;;;;4831487;29;20349;-70
2021/05/09 07:11:27;;;;;;;5.43;3.35;;;17.70;58.40;;;;;;4830625;29;20054;-69
2021/05/09 07:13:53;;;;;;;4.78;3.13;;;17.80;58.70;;;;;;4827722;29;20039;-69
2021/05/09 07:16:20;;;;;;;5.15;2.92;;;17.70;57.50;;;;;;4830780;29;20160;-70
2021/05/09 07:18:46;;;;;;;;;;;17.80;57.40;;;;;;4829731;29;20034;-69
2021/05/09 07:21:15;;;;;;;8.50;3.83;;;17.90;56.70;;;;;;4832843;29;19908;-70
2021/05/09 07:23:46;;;;;;;3.95;2.97;;;17.80;56.90;;;;;;4828449;29;20058;-69
2021/05/09 07:26:13;;;;;;;5.50;3.13;;;17.80;55.40;;;;;;4829775;29;20067;-70
2021/05/09 07:28:39;;;;;;;6.72;2.88;;;17.90;56.20;;;;;;4832378;29;20022;-71
2021/05/09 07:31:04;;;;;;;10.95;2.92;;;18.00;56.70;;;;;;4835418;29;20330;-71
2021/05/09 07:33:30;;;;;;;4.53;2.53;;;18.10;56.60;;;;;;4831823;29;20033;-70
2021/05/09 07:35:56;;;;;;;4.00;2.63;;;18.20;55.50;;;;;;4835518;29;20026;-69
2021/05/09 07:38:21;;;;;;;5.25;2.83;;;18.20;55.90;;;;;;4834716;29;20064;-74
2021/05/09 07:40:47;;;;;;;4.80;2.67;;;18.20;55.90;;;;;;4835743;29;20030;-74
2021/05/09 07:43:14;;;;;;;4.38;2.78;;;18.30;56.00;;;;;;4835831;29;20026;-73
2021/05/09 07:45:40;;;;;;;9.40;3.13;;;18.40;57.30;;;;;;4834345;29;20062;-73
2021/05/09 07:48:06;;;;;;;4.18;2.90;;;18.50;57.40;;;;;;4835639;29;20034;-74
2021/05/09 07:50:32;;;;;;;5.65;2.72;;;18.40;54.40;;;;;;4834094;29;20095;-72
2021/05/09 07:52:59;;;;;;;4.80;2.60;;;18.30;55.70;;;;;;4849507;29;20030;-72
2021/05/09 07:55:25;;;;;;;4.00;2.83;;;18.30;56.60;;;;;;4835259;29;20038;-73
2021/05/09 07:57:50;;;;;;;7.70;2.75;;;18.30;57.40;;;;;;4833446;29;20045;-77
2021/05/09 08:00:17;;;;;;;8.95;2.58;;;18.50;57.30;;;;;;4834977;29;20026;-72
2021/05/09 08:02:44;;;;;;;12.68;3.00;;;18.60;55.20;;;;;;4834475;29;20055;-73
2021/05/09 08:05:10;;;;;;;4.97;2.70;;;18.60;56.10;;;;;;4834224;29;20027;-72
2021/05/09 08:07:48;;;;;;;5.38;2.75;;;18.60;53.80;;;;;;4832226;29;20022;-73
2021/05/09 08:10:14;;;;;;;4.53;2.33;;;18.60;54.60;;;;;;4832607;29;20037;-74
2021/05/09 08:12:39;;;;;;;8.15;2.42;;;18.80;55.30;;;;;;4818724;29;20102;-73
2021/05/09 08:15:06;;;;;;;4.72;2.35;;;18.90;55.50;;;;;;4834991;29;20018;-72
2021/05/09 08:17:31;;;;;;;5.23;2.37;;;19.10;55.00;;;;;;4834141;29;20030;-73
2021/05/09 08:19:57;;;;;;;5.72;2.10;;;19.30;54.80;;;;;;4818816;29;20306;-72
2021/05/09 08:22:23;;;;;;;3.28;2.20;;;20.00;54.10;;;;;;4818542;29;20026;-71
2021/05/09 08:24:48;;;;;;;6.07;2.58;;;21.00;51.40;;;;;;4834710;29;20362;-73
2021/05/09 08:27:14;;;;;;;6.80;2.42;;;22.20;48.20;;;;;;4851423;29;20082;-71
2021/05/09 08:29:40;;;;;;;6.20;3.05;;;23.30;45.80;;;;;;4834909;29;20209;-72
2021/05/09 08:32:05;;;;;;;6.68;2.70;;;24.10;43.60;;;;;;4833634;29;20026;-71
2021/05/09 08:34:31;;;;;;;5.40;2.38;;;25.00;42.90;;;;;;4835007;29;20040;-72
2021/05/09 08:36:57;;;;;;;8.23;3.25;;;25.90;39.20;;;;;;4831349;29;20205;-74
2021/05/09 08:39:22;;;;;;;3.88;2.35;;;26.40;39.40;;;;;;4832464;29;20037;-73
2021/05/09 08:41:50;;;;;;;6.38;2.50;;;26.60;37.20;;;;;;4835015;29;20187;-73
2021/05/09 08:44:16;;;;;;;3.38;2.40;;;27.10;37.90;;;;;;4833262;29;20049;-73
2021/05/09 08:46:46;;;;;;;4.87;2.60;;;27.80;35.60;;;;;;4834360;29;20031;-74
2021/05/09 08:49:14;;;;;;;4.28;2.65;;;27.70;35.80;;;;;;4834676;29;20101;-76
2021/05/09 08:51:40;;;;;;;5.00;2.40;;;28.10;35.20;;;;;;4833645;29;20194;-75
2021/05/09 08:54:07;;;;;;;12.75;3.22;;;28.10;35.10;;;;;;4833907;29;20045;-74
2021/05/09 08:56:34;;;;;;;;;;;28.50;35.10;;;;;;4815387;29;20229;-73
2021/05/09 08:58:59;;;;;;;4.05;2.53;;;29.00;33.80;;;;;;4833054;29;19916;-73
2021/05/09 09:01:29;;;;;;;3.20;2.40;;;29.40;33.60;;;;;;4817222;29;20033;-74
2021/05/09 09:03:55;;;;;;;4.63;2.22;;;29.50;32.90;;;;;;4831658;29;20075;-73
2021/05/09 09:06:40;;;;;;;8.53;2.93;;;29.60;32.20;;;;;;4825657;29;20208;-75
2021/05/09 09:09:06;;;;;;;5.32;2.13;;;29.70;32.70;;;;;;4824308;29;20031;-75
2021/05/09 09:11:32;;;;;;;3.97;2.20;;;29.80;32.40;;;;;;4821828;29;20019;-73
2021/05/09 09:14:11;;;;;;;4.13;2.37;;;29.90;32.50;;;;;;4830907;29;20062;-76
2021/05/09 09:16:38;;;;;;;4.10;2.83;;;30.10;31.80;;;;;;4835845;29;20492;-75
2021/05/09 09:19:21;;;;;;;2.88;2.10;;;30.20;30.20;;;;;;4829446;29;20221;-76
2021/05/09 09:21:54;;;;;;;3.50;2.33;;;30.00;31.30;;;;;;4843444;29;20334;-74
2021/05/09 09:24:20;;;;;;;4.07;2.13;;;30.40;30.50;;;;;;4831829;29;20022;-76
2021/05/09 09:26:52;;;;;;;3.83;2.33;;;30.40;31.10;;;;;;4832919;29;20023;-75
2021/05/09 09:29:24;;;;;;;16.80;10.85;;;30.60;31.10;;;;;;4834449;29;20029;-74
2021/05/09 09:31:58;;;;;;;53.22;11.93;;;30.90;30.20;;;;;;4832657;29;20246;-74
2021/05/09 09:34:50;;;;;;;3.75;3.13;;;31.30;30.50;;;;;;4834120;29;20045;-76
2021/05/09 09:37:16;;;;;;;31.58;4.53;;;31.70;30.10;;;;;;4834075;29;20105;-75
2021/05/09 09:39:46;;;;;;;;;;;32.10;28.80;;;;;;4835740;29;20034;-76
2021/05/09 09:42:12;;;;;;;0.40;0.40;;;32.20;28.80;;;;;;4834100;29;19987;-74
2021/05/09 09:44:38;;;;;;;0.40;0.40;;;32.60;29.20;;;;;;4827027;29;20022;-75
2021/05/09 09:47:04;;;;;;;0.40;0.40;;;32.80;28.60;;;;;;4845557;29;20046;-74
2021/05/09 09:49:31;;;;;;;0.40;0.40;;;32.70;28.80;;;;;;4833276;29;20340;-75
2021/05/09 09:51:58;;;;;;;0.40;0.40;;;32.40;28.80;;;;;;4832568;29;20199;-75
2021/05/09 09:54:31;;;;;;;0.35;0.35;;;32.30;29.60;;;;;;4831917;29;20035;-77
2021/05/09 09:56:59;;;;;;;0.50;0.50;;;32.40;28.30;;;;;;4829487;29;20121;-76
2021/05/09 09:59:25;;;;;;;0.50;0.50;;;32.70;29.50;;;;;;4833658;29;20033;-76
2021/05/09 10:01:51;;;;;;;0.50;0.50;;;32.60;28.70;;;;;;4832688;29;20033;-75
2021/05/09 10:04:17;;;;;;;0.50;0.50;;;32.50;27.70;;;;;;4845308;29;20042;-75
2021/05/09 10:06:42;;;;;;;0.43;0.43;;;32.30;28.70;;;;;;4825400;29;20069;-75
2021/05/09 10:09:09;;;;;;;0.50;0.50;;;32.50;28.90;;;;;;4828852;29;20211;-75
2021/05/09 10:11:36;;;;;;;0.60;0.60;;;32.60;27.70;;;;;;4829647;29;20030;-75
2021/05/09 10:14:04;;;;;;;0.50;0.50;;;32.60;28.00;;;;;;4836282;29;20036;-75
2021/05/09 10:16:34;;;;;;;0.80;0.80;;;32.70;28.50;;;;;;4810978;29;20100;-75
2021/05/09 10:19:02;;;;;;;0.40;0.40;;;33.00;27.90;;;;;;4824666;29;20030;-75
2021/05/09 10:21:28;;;;;;;0.50;0.50;;;33.10;28.80;;;;;;4829780;29;20026;-76
2021/05/09 10:24:23;;;;;;;0.50;0.50;;;33.40;28.50;;;;;;4829313;29;20034;-76
2021/05/09 10:26:56;;;;;;;0.43;0.43;;;33.70;28.00;;;;;;4819191;29;20030;-77
2021/05/09 10:29:35;;;;;;;0.50;0.50;;;33.90;27.90;;;;;;4831955;29;20037;-76
2021/05/09 10:32:20;;;;;;;0.40;0.40;;;34.20;27.00;;;;;;4831530;29;20031;-76
2021/05/09 10:34:55;;;;;;;0.38;0.38;;;33.80;27.40;;;;;;4829425;29;20052;-76
2021/05/09 10:37:40;;;;;;;0.30;0.30;;;34.00;27.30;;;;;;4833953;29;20093;-74
2021/05/09 10:40:22;;;;;;;0.40;0.40;;;33.70;27.30;;;;;;4817711;29;20030;-75
2021/05/09 10:43:09;;;;;;;0.55;0.55;;;33.70;26.60;;;;;;4819645;29;20047;-77
2021/05/09 10:45:35;;;;;;;0.30;0.30;;;33.80;26.90;;;;;;4818682;29;20080;-75
2021/05/09 10:48:22;;;;;;;0.40;0.40;;;33.50;27.60;;;;;;4835342;29;20064;-79
2021/05/09 10:50:55;;;;;;;0.40;0.40;;;33.10;27.70;;;;;;4835202;29;20271;-76
2021/05/09 10:53:36;;;;;;;0.60;0.60;;;32.90;27.70;;;;;;4835658;29;20038;-77
2021/05/09 10:56:25;;;;;;;0.40;0.40;;;32.90;27.90;;;;;;4836308;29;20267;-77
2021/05/09 10:58:53;;;;;;;0.30;0.30;;;33.20;27.70;;;;;;4798719;30;20108;-77
2021/05/09 11:01:28;;;;;;;0.40;0.40;;;33.50;27.40;;;;;;4779942;30;20039;-77
2021/05/09 11:04:03;;;;;;;0.38;0.38;;;33.30;26.80;;;;;;4797829;30;20047;-76
2021/05/09 11:06:34;;;;;;;0.50;0.50;;;33.30;27.40;;;;;;4798377;30;20318;-76
2021/05/09 11:09:21;;;;;;;0.40;0.40;;;33.50;27.70;;;;;;4782718;30;20051;-77
2021/05/09 11:11:47;;;;;;;0.40;0.40;;;33.50;27.40;;;;;;4737752;30;20044;-77
2021/05/09 11:14:16;;;;;;;0.40;0.40;;;33.00;27.10;;;;;;4744794;30;20055;-76
2021/05/09 11:17:06;;;;;;;0.40;0.40;;;33.00;27.60;;;;;;4728064;30;20049;-76
2021/05/09 11:19:36;;;;;;;0.30;0.30;;;33.20;27.60;;;;;;4730279;30;20307;-77
2021/05/09 11:22:03;;;;;;;0.40;0.40;;;33.40;27.30;;;;;;4728969;30;20112;-76
2021/05/09 11:24:32;;;;;;;;;;;33.30;26.90;;;;;;4715071;30;20060;-76
2021/05/09 11:26:59;;;;;;;0.30;0.30;;;33.20;27.50;;;;;;4742430;30;19918;-76
2021/05/09 11:29:26;;;;;;;0.30;0.30;;;33.30;27.50;;;;;;4729886;30;20340;-78
2021/05/09 11:31:59;;;;;;;0.30;0.30;;;33.40;27.20;;;;;;4744998;30;20043;-77
2021/05/09 11:34:27;;;;;;;0.30;0.30;;;33.40;27.30;;;;;;4729785;30;20350;-77
2021/05/09 11:36:55;;;;;;;0.30;0.30;;;33.30;27.20;;;;;;4746912;30;20082;-75
2021/05/09 11:39:30;;;;;;;0.30;0.30;;;33.10;26.70;;;;;;4763442;30;20040;-76
2021/05/09 11:41:57;;;;;;;0.30;0.30;;;32.70;27.80;;;;;;4778295;30;20098;-77
2021/05/09 11:44:25;;;;;;;0.20;0.20;;;32.80;27.80;;;;;;4771028;30;20066;-76
2021/05/09 11:46:51;;;;;;;0.20;0.20;;;32.70;27.50;;;;;;4777787;30;20059;-77
2021/05/09 11:49:20;;;;;;;0.20;0.20;;;32.50;27.20;;;;;;4816371;29;20046;-77
2021/05/09 11:52:17;;;;;;;0.22;0.22;;;32.50;27.80;;;;;;4850991;29;20030;-78
2021/05/09 11:54:47;;;;;;;0.20;0.20;;;32.30;28.30;;;;;;4850732;29;20037;-78
2021/05/09 11:57:15;;;;;;;0.17;0.17;;;32.30;27.20;;;;;;4823721;29;20031;-80
2021/05/09 11:59:46;;;;;;;0.20;0.20;;;32.20;27.60;;;;;;4821484;29;20050;-78
2021/05/09 12:02:22;;;;;;;0.10;0.10;;;32.20;28.00;;;;;;4834742;29;20064;-78
2021/05/09 12:04:50;;;;;;;0.20;0.20;;;32.10;27.80;;;;;;4835896;29;20302;-76
2021/05/09 12:07:21;;;;;;;0.20;0.20;;;31.70;27.40;;;;;;4836121;29;20299;-74
2021/05/09 12:09:58;;;;;;;0.10;0.10;;;31.60;27.30;;;;;;4819485;29;20214;-75
2021/05/09 12:12:26;;;;;;;0.17;0.17;;;30.90;28.30;;;;;;4834555;29;20100;-73
2021/05/09 12:14:53;;;;;;;0.13;0.13;;;30.70;28.10;;;;;;4835250;29;20053;-74
2021/05/09 12:17:24;;;;;;;0.20;0.20;;;30.30;28.30;;;;;;4834270;29;20042;-73
2021/05/09 12:19:51;;;;;;;0.10;0.10;;;30.10;28.50;;;;;;4834882;29;20045;-74
2021/05/09 12:22:17;;;;;;;0.10;0.10;;;29.80;29.50;;;;;;4834213;29;20029;-75
2021/05/09 12:25:09;;;;;;;4.07;1.47;;;29.60;29.70;;;;;;4831704;29;20041;-75
2021/05/09 12:27:45;;;;;;;4.45;1.55;;;29.30;30.70;;;;;;4814621;29;20038;-75
2021/05/09 12:30:11;;;;;;;2.40;1.48;;;29.10;31.10;;;;;;4813471;29;20031;-73
2021/05/09 12:32:40;;;;;;;6.10;2.30;;;29.00;31.60;;;;;;4797448;29;20034;-74
2021/05/09 12:35:10;;;;;;;3.17;1.40;;;28.80;30.40;;;;;;4777824;29;20134;-75
2021/05/09 12:37:57;;;;;;;7.88;1.60;;;28.60;31.60;;;;;;4806783;29;20073;-74
2021/05/09 12:40:24;;;;;;;4.70;1.50;;;28.30;30.70;;;;;;4810624;29;20042;-74
2021/05/09 12:42:54;;;;;;;3.80;1.67;;;27.90;31.40;;;;;;4793300;30;20023;-74
2021/05/09 12:45:38;;;;;;;2.50;1.25;;;27.70;30.90;;;;;;4796845;29;20043;-75
2021/05/09 12:48:26;;;;;;;2.45;1.00;;;27.50;31.20;;;;;;4798345;29;20042;-74
2021/05/09 12:50:55;;;;;;;3.22;1.52;;;27.40;32.50;;;;;;4811019;29;20053;-73
2021/05/09 12:53:51;;;;;;;9.82;1.40;;;27.30;31.80;;;;;;4796832;29;20662;-75
2021/05/09 12:56:26;;;;;;;2.10;0.90;;;27.00;32.00;;;;;;4775697;30;20053;-74
2021/05/09 12:59:10;;;;;;;2.75;1.10;;;26.80;32.10;;;;;;4777980;30;20071;-74
2021/05/09 13:01:39;;;;;;;3.83;1.27;;;26.90;32.90;;;;;;4778736;30;20279;-75
2021/05/09 13:04:32;;;;;;;5.70;1.63;;;26.70;32.30;;;;;;4789402;29;20109;-74
2021/05/09 13:06:59;;;;;;;4.32;1.48;;;26.70;33.30;;;;;;4809257;29;20035;-72
2021/05/09 13:09:25;;;;;;;;;;;26.70;33.10;;;;;;4814064;29;20042;-74
2021/05/09 13:11:51;;;;;;;2.20;1.25;;;26.70;33.90;;;;;;4808705;29;19921;-73
2021/05/09 13:14:17;;;;;;;1.10;1.00;;;26.70;33.80;;;;;;4784025;29;20035;-73
2021/05/09 13:16:43;;;;;;;2.10;1.20;;;26.80;34.30;;;;;;4813535;29;20266;-75
2021/05/09 13:19:08;;;;;;;4.13;1.50;;;26.80;33.90;;;;;;4813550;29;20039;-73
2021/05/09 13:21:34;;;;;;;7.50;1.27;;;26.90;33.80;;;;;;4813937;29;20026;-73
2021/05/09 13:24:00;;;;;;;5.45;1.25;;;26.90;33.80;;;;;;4798825;29;20066;-73
2021/05/09 13:26:28;;;;;;;3.75;1.40;;;26.90;34.00;;;;;;4798770;29;20065;-74
2021/05/09 13:28:54;;;;;;;3.80;1.25;;;26.80;33.20;;;;;;4813870;29;20081;-73
2021/05/09 13:31:19;;;;;;;4.38;1.20;;;26.80;34.00;;;;;;4795556;29;20337;-73
2021/05/09 13:33:45;;;;;;;2.67;1.23;;;26.80;33.30;;;;;;4827692;29;20050;-73
2021/05/09 13:36:11;;;;;;;8.30;1.33;;;26.80;33.50;;;;;;4832414;29;20034;-73
2021/05/09 13:38:36;;;;;;;3.20;1.30;;;26.70;33.90;;;;;;4833873;29;20155;-72
2021/05/09 13:41:02;;;;;;;3.38;1.40;;;26.70;33.70;;;;;;4832455;29;20030;-75
2021/05/09 13:43:28;;;;;;;5.53;1.55;;;26.70;33.30;;;;;;4850704;29;20057;-74
2021/05/09 13:45:54;;;;;;;1.83;1.20;;;26.60;33.50;;;;;;4825718;29;20199;-75
2021/05/09 13:48:23;;;;;;;2.95;1.10;;;26.70;33.70;;;;;;4827953;29;20122;-74
2021/05/09 13:50:48;;;;;;;5.50;1.23;;;26.60;33.60;;;;;;4829533;29;20027;-74
2021/05/09 13:53:14;;;;;;;2.45;1.10;;;26.60;34.60;;;;;;4830394;29;20090;-74
2021/05/09 13:55:40;;;;;;;1.90;1.20;;;26.60;34.60;;;;;;4825706;29;20045;-74
2021/05/09 13:58:05;;;;;;;2.70;1.25;;;26.70;34.50;;;;;;4829787;29;20038;-74
2021/05/09 14:00:31;;;;;;;19.98;1.48;;;26.70;33.80;;;;;;4826552;29;20077;-73
2021/05/09 14:02:57;;;;;;;1.67;1.15;;;26.70;34.60;;;;;;4827835;29;20030;-72
2021/05/09 14:36:16;;;;;;;8.23;1.58;;;26.20;33.30;;;;;;5113180;27;1488267;-75
2021/05/09 14:38:42;;;;;;;3.65;1.10;;;26.20;33.40;;;;;;5141335;28;20023;-77
2021/05/09 14:41:07;;;;;;;6.90;1.33;;;26.30;33.50;;;;;;5140504;28;20308;-73
2021/05/09 14:43:33;;;;;;;2.85;1.30;;;26.50;32.90;;;;;;5140967;28;20102;-73
2021/05/09 14:45:59;;;;;;;2.05;1.33;;;26.60;32.30;;;;;;5134594;28;20060;-76
2021/05/09 14:48:25;;;;;;;3.90;1.50;;;26.70;32.80;;;;;;5103378;28;20016;-73
2021/05/09 14:50:50;;;;;;;2.30;1.05;;;26.90;32.60;;;;;;5111244;28;20027;-75
2021/05/09 14:53:16;;;;;;;4.82;1.25;;;27.10;32.70;;;;;;5104269;28;20108;-78
2021/05/09 14:55:43;;;;;;;8.07;1.00;;;27.10;31.60;;;;;;5095067;28;20022;-82
2021/05/09 14:58:08;;;;;;;5.38;1.40;;;27.20;31.80;;;;;;5098752;28;20024;-82
2021/05/09 15:00:34;;;;;;;32.13;2.37;;;27.30;31.40;;;;;;5097578;28;20397;-80
2021/05/09 15:03:00;;;;;;;17.35;1.65;;;27.30;31.40;;;;;;5100150;28;20035;-77
2021/05/09 15:05:26;;;;;;;10.25;1.17;;;27.20;31.60;;;;;;5107609;28;20238;-83
2021/05/09 15:07:52;;;;;;;18.37;2.70;;;27.30;31.50;;;;;;5096446;28;20023;-77
2021/05/09 15:10:18;;;;;;;3.28;1.08;;;27.20;31.30;;;;;;5101893;28;20026;-78
2021/05/09 15:12:43;;;;;;;1.88;1.02;;;27.10;31.20;;;;;;5103410;28;20038;-81
2021/05/09 15:15:10;;;;;;;1.88;1.00;;;27.00;31.50;;;;;;5089685;28;20023;-80
2021/05/09 15:17:35;;;;;;;2.95;1.23;;;27.10;31.60;;;;;;5109826;28;20042;-82
2021/05/09 15:20:04;;;;;;;6.43;1.30;;;27.10;31.00;;;;;;5104170;28;20028;-81
2021/05/09 15:22:33;;;;;;;5.50;0.88;;;27.10;31.30;;;;;;5088193;28;20036;-83
2021/05/09 15:24:59;;;;;;;2.45;0.65;;;27.00;30.60;;;;;;5119885;28;20024;-84
2021/05/09 15:27:26;;;;;;;5.10;1.30;;;26.90;30.80;;;;;;5103722;28;20016;-83
2021/05/09 15:29:51;;;;;;;6.93;1.35;;;26.70;30.80;;;;;;5099971;28;20023;-80
2021/05/09 15:32:17;;;;;;;6.38;0.93;;;26.60;32.60;;;;;;5084829;28;20154;-82
2021/05/09 15:34:44;;;;;;;2.50;1.00;;;26.70;31.70;;;;;;5088106;28;20074;-83
2021/05/09 15:37:10;;;;;;;10.93;2.85;;;26.80;31.70;;;;;;5075834;28;20052;-84
2021/05/09 15:39:36;;;;;;;6.22;1.73;;;26.70;33.00;;;;;;5087147;28;20024;-83
2021/05/09 15:42:02;;;;;;;2.70;1.45;;;26.70;31.60;;;;;;5106463;28;20327;-82
2021/05/09 15:44:32;;;;;;;1.17;0.90;;;26.50;31.10;;;;;;5085528;28;20031;-84
2021/05/09 15:46:59;;;;;;;2.15;0.82;;;26.30;31.70;;;;;;5085363;28;20020;-83
2021/05/09 15:49:26;;;;;;;3.38;1.25;;;26.30;32.10;;;;;;5075481;28;20036;-83
2021/05/09 15:51:52;;;;;;;7.05;1.13;;;26.20;31.00;;;;;;5073640;28;20027;-82
2021/05/09 15:54:18;;;;;;;3.25;1.23;;;26.20;31.70;;;;;;5081098;28;20047;-83
2021/05/09 15:56:44;;;;;;;3.72;0.88;;;26.30;31.70;;;;;;5062020;28;20025;-83
2021/05/09 15:59:11;;;;;;;2.63;1.13;;;26.50;31.50;;;;;;5073111;28;20059;-83
2021/05/09 16:01:40;;;;;;;10.80;1.20;;;26.60;30.80;;;;;;5070962;28;20081;-84
2021/05/09 16:07:10;;;;;;;4.07;1.23;;;26.40;30.80;;;;;;4952691;29;20084;-82
2021/05/09 16:09:35;;;;;;;3.40;0.82;;;26.30;30.60;;;;;;4937508;29;20032;-82
2021/05/09 16:12:01;;;;;;;3.55;1.00;;;26.30;30.80;;;;;;4938285;29;20117;-83
2021/05/09 16:14:28;;;;;;;2.43;1.10;;;26.20;30.30;;;;;;4937455;29;20036;-83
2021/05/09 16:16:55;;;;;;;;;;;26.10;31.00;;;;;;4921060;29;20030;-82